KDTW/DTW METAR and TAF weather

Enter ICAO airport designator
Station Type Date Time Source
KDTW METAR 2020/01/18 03:53 UTC NOAA

KDTW 180353Z 09006KT 10SM SCT020 OVC075 M03/M07 A3051 RMK AO2 SLP341 T10331072


Station Type Date Time Source
KDTW Decoded METAR 2020/01/18 03:53 UTC NOAA

DETROIT METROPOLITAN, MI, United States (KDTW) 42-14N 83-20W 195M
Jan 17, 2020 - 10:53 PM EST / 2020.01.18 0353 UTC
Wind: from the E (090 degrees) at 7 MPH (6 KT):0
Visibility: 10 mile(s):0
Sky conditions: overcast
Temperature: 26.1 F (-3.3 C)
Windchill: 17 F (-8 C):1
Dew Point: 19.0 F (-7.2 C)
Relative Humidity: 74%
Pressure (altimeter): 30.51 in. Hg (1033 hPa)
ob: KDTW 180353Z 09006KT 10SM SCT020 OVC075 M03/M07 A3051 RMK AO2 SLP341 T10331072
cycle: 4

Station Type Date Time Source
KDTW TAF 2020/01/18 03:24 UTC NOAA

TAF
AMD KDTW 180320Z 1803/1906 10010KT P6SM BKN028 OVC150
FM180500 11012KT 2SM -SN BKN028 OVC040
FM180700 11012KT 1/2SM SN BKN005 OVC018
FM180900 12012KT 1/4SM +SN VV003
FM181300 14015G20KT 1SM -SNPL OVC006
FM181500 17016G25KT 3SM -DZ BKN008 OVC018
FM182000 26022G32KT P6SM BKN022 OVC035
TEMPO 1901/1905 3SM -SHSN BKN012 OVC022

Example: see airport list